Time;durP1;ratioP1;P1;durP2;ratioP2;P2;SDS_P1;SDS_P2;PMS_P1;PMS_P2;Temp;Humidity;BMP_temperature;BMP_pressure;BME280_temperature;BME280_humidity;BME280_pressure;Samples;Min_cycle;Max_cycle;Signal;HPM_P1;HPM_P2
2021/11/15 00:02:13;;;;;;;56.57;52.40;;;;;;;11.32;100.00;102890.52;2007843;71;32778;-71
2021/11/15 00:07:58;;;;;;;54.13;49.83;;;;;;;11.37;100.00;102889.80;2013230;71;33500;-72
2021/11/15 00:13:41;;;;;;;54.07;50.07;;;;;;;11.33;100.00;102876.92;2005684;71;32816;-74
2021/11/15 00:19:25;;;;;;;55.27;51.17;;;;;;;11.40;100.00;102876.78;2011490;71;32840;-72
2021/11/15 00:25:12;;;;;;;51.87;47.97;;;;;;;11.48;100.00;102880.59;2011132;71;33147;-74
2021/11/15 00:30:56;;;;;;;52.57;48.67;;;;;;;11.38;100.00;102888.14;2007900;71;32865;-74
2021/11/15 00:36:41;;;;;;;54.17;50.10;;;;;;;11.40;100.00;102882.34;2016857;71;32832;-75
2021/11/15 00:42:26;;;;;;;51.17;47.30;;;;;;;11.43;100.00;102894.37;2014690;71;33365;-71
2021/11/15 00:48:11;;;;;;;54.07;49.73;;;;;;;11.36;100.00;102890.34;2009098;71;32816;-74
2021/11/15 00:53:56;;;;;;;54.67;50.63;;;;;;;11.45;100.00;102892.76;2011286;71;33028;-72
2021/11/15 00:59:41;;;;;;;53.23;49.23;;;;;;;11.35;100.00;102894.20;2011303;71;33554;-71
2021/11/15 01:05:27;;;;;;;52.50;48.50;;;;;;;11.45;100.00;102896.39;2016487;71;32835;-73
2021/11/15 01:11:12;;;;;;;56.23;51.80;;;;;;;11.38;100.00;102888.72;2009170;71;32910;-71
2021/11/15 01:16:56;;;;;;;52.57;48.33;;;;;;;11.38;100.00;102888.14;2013201;71;33506;-74
2021/11/15 01:22:40;;;;;;;52.83;48.60;;;;;;;11.46;100.00;102890.28;2011460;71;32782;-74
2021/11/15 01:28:25;;;;;;;55.03;50.53;;;;;;;11.43;100.00;102891.05;1998743;71;32949;-71
2021/11/15 01:34:09;;;;;;;55.07;50.63;;;;;;;11.36;100.00;102878.36;1991412;71;32766;-71
2021/11/15 01:39:53;;;;;;;57.10;52.50;;;;;;;11.36;100.00;102881.98;2013220;71;32844;-74
2021/11/15 01:45:40;;;;;;;54.20;50.00;;;;;;;11.36;100.00;102879.75;2003911;71;32961;-71
2021/11/15 01:51:26;;;;;;;51.73;47.67;;;;;;;11.53;100.00;102883.50;2010947;71;32826;-71
2021/11/15 01:57:12;;;;;;;53.50;49.17;;;;;;;11.35;100.00;102890.03;1995159;71;32890;-73
2021/11/15 02:02:56;;;;;;;55.73;51.33;;;;;;;11.56;100.00;102887.72;2016545;71;32915;-71
2021/11/15 02:08:41;;;;;;;54.27;50.00;;;;;;;11.44;100.00;102890.52;2010991;71;32907;-74
2021/11/15 02:14:25;;;;;;;56.37;51.70;;;;;;;11.33;100.00;102883.02;2009945;71;32772;-73
2021/11/15 02:20:13;;;;;;;56.73;52.03;;;;;;;11.31;100.00;102879.62;2009870;71;32755;-74
2021/11/15 02:25:59;;;;;;;57.30;52.90;;;;;;;11.32;100.00;102874.36;2006058;71;32856;-75
2021/11/15 02:31:45;;;;;;;56.20;51.90;;;;;;;11.32;100.00;102860.45;2007435;71;32891;-73
2021/11/15 02:37:28;;;;;;;56.70;52.17;;;;;;;11.43;100.00;102856.81;1991312;71;32880;-71
2021/11/15 02:43:12;;;;;;;56.70;51.97;;;;;;;11.35;100.00;102855.78;2014823;71;32912;-73
2021/11/15 02:48:56;;;;;;;55.47;51.03;;;;;;;11.24;100.00;102856.64;1996729;71;32822;-71
2021/11/15 02:54:41;;;;;;;53.57;49.27;;;;;;;11.29;100.00;102856.23;2009663;71;32809;-71
2021/11/15 02:57:15;;;;;;;55.50;51.07;;;;;;;11.31;100.00;102860.14;1962111;72;26293;-71
2021/11/15 03:03:00;;;;;;;55.23;50.87;;;;;;;11.45;100.00;102846.84;1999936;71;32886;-71
2021/11/15 03:08:45;;;;;;;57.27;52.60;;;;;;;11.28;100.00;102845.33;2007452;71;32906;-71
2021/11/15 03:14:28;;;;;;;57.37;52.57;;;;;;;11.24;100.00;102842.19;2014722;71;32890;-73
2021/11/15 03:20:12;;;;;;;55.93;51.03;;;;;;;11.25;100.00;102846.64;2006050;71;32756;-74
2021/11/15 03:25:57;;;;;;;54.90;50.30;;;;;;;11.39;100.00;102850.03;2002281;71;32866;-71
2021/11/15 03:31:42;;;;;;;58.67;53.53;;;;;;;11.44;100.00;102850.16;1999979;71;32802;-73
2021/11/15 03:37:27;;;;;;;57.47;52.80;;;;;;;11.41;100.00;102842.31;2007742;71;33317;-71
2021/11/15 03:43:11;;;;;;;57.97;53.17;;;;;;;11.24;100.00;102840.80;2009093;71;33255;-71
2021/11/15 03:48:56;;;;;;;57.93;53.03;;;;;;;11.33;100.00;102842.67;2009696;71;33339;-74
2021/11/15 03:54:40;;;;;;;56.97;51.93;;;;;;;11.26;100.00;102851.66;1999875;71;32808;-73
2021/11/15 04:00:26;;;;;;;55.80;50.77;;;;;;;11.27;100.00;102847.80;1994979;71;33293;-70
2021/11/15 04:06:22;;;;;;;59.07;53.87;;;;;;;11.33;100.00;102850.48;2000153;71;32887;-73
2021/11/15 04:12:00;;;;;;;58.53;53.27;;;;;;;11.48;100.00;102857.48;2012788;71;32791;-73
2021/11/15 04:17:46;;;;;;;58.40;53.50;;;;;;;11.40;100.00;102848.41;2003427;71;32805;-71
2021/11/15 04:23:32;;;;;;;58.67;53.67;;;;;;;11.47;100.00;102858.02;2018203;71;33259;-71
2021/11/15 04:29:16;;;;;;;56.23;51.50;;;;;;;11.25;100.00;102863.33;2006078;71;33279;-71
2021/11/15 04:35:00;;;;;;;57.90;53.07;;;;;;;11.20;100.00;102863.23;2009544;71;32723;-74
2021/11/15 04:40:44;;;;;;;58.40;53.20;;;;;;;11.24;100.00;102863.05;2005788;71;32906;-71
2021/11/15 04:46:27;;;;;;;58.30;53.03;;;;;;;11.24;100.00;102860.27;2014993;71;33327;-73
2021/11/15 04:52:11;;;;;;;57.63;52.57;;;;;;;11.29;100.00;102865.12;2016570;71;32795;-74
2021/11/15 04:57:56;;;;;;;56.53;51.73;;;;;;;11.22;100.00;102866.61;2016425;71;32982;-74
2021/11/15 05:03:40;;;;;;;55.67;50.77;;;;;;;11.25;100.00;102866.69;2000442;71;32857;-71
2021/11/15 05:09:24;;;;;;;58.33;53.23;;;;;;;11.21;100.00;102859.91;2012973;71;32953;-73
2021/11/15 05:15:11;;;;;;;59.30;53.83;;;;;;;11.29;100.00;102874.31;2018327;71;32916;-71
2021/11/15 05:20:56;;;;;;;59.13;53.87;;;;;;;11.09;100.00;102865.44;2009792;71;33389;-74
2021/11/15 05:26:39;;;;;;;59.97;54.80;;;;;;;11.08;100.00;102876.83;2006076;70;32727;-75
2021/11/15 05:32:24;;;;;;;61.80;56.43;;;;;;;11.13;100.00;102876.39;2014625;71;32809;-74
2021/11/15 05:38:08;;;;;;;59.23;53.87;;;;;;;11.23;100.00;102880.83;1994945;71;32812;-74
2021/11/15 05:43:54;;;;;;;60.23;54.90;;;;;;;11.07;100.00;102865.39;2014751;71;32913;-74
2021/11/15 05:49:38;;;;;;;61.13;55.93;;;;;;;11.07;100.00;102868.17;2006231;71;33330;-73
2021/11/15 05:55:24;;;;;;;59.47;54.20;;;;;;;11.03;100.00;102878.93;2012892;71;32876;-70
2021/11/15 06:01:09;;;;;;;60.23;54.77;;;;;;;11.08;100.00;102881.00;1994668;71;32879;-71
2021/11/15 06:06:53;;;;;;;60.47;55.17;;;;;;;11.07;100.00;102875.13;1999902;71;32819;-72
2021/11/15 06:12:38;;;;;;;59.17;54.00;;;;;;;11.16;100.00;102875.93;2010815;71;32811;-71
2021/11/15 06:18:23;;;;;;;58.80;53.60;;;;;;;11.07;100.00;102884.86;2006256;71;32802;-73
2021/11/15 06:24:07;;;;;;;59.80;54.60;;;;;;;11.00;100.00;102876.60;1958523;72;32981;-74
2021/11/15 06:29:51;;;;;;;59.33;53.93;;;;;;;11.11;100.00;102891.64;2016689;71;32929;-74
2021/11/15 06:35:35;;;;;;;57.37;52.13;;;;;;;11.13;100.00;102888.05;2002188;71;32852;-71
2021/11/15 06:41:19;;;;;;;56.90;51.83;;;;;;;10.98;100.00;102901.04;2004276;71;32736;-70
2021/11/15 06:47:07;;;;;;;57.97;52.97;;;;;;;11.03;100.00;102906.74;2009721;71;32751;-74
2021/11/15 06:52:52;;;;;;;59.10;53.93;;;;;;;10.92;100.00;102901.98;2016449;71;32872;-75
2021/11/15 06:58:37;;;;;;;59.07;54.20;;;;;;;11.02;100.00;102903.65;2002054;71;32860;-71
2021/11/15 07:04:23;;;;;;;58.17;53.43;;;;;;;11.02;100.00;102913.38;2010993;71;32916;-74
2021/11/15 07:10:10;;;;;;;60.77;56.17;;;;;;;11.10;100.00;102914.97;1996847;71;32739;-73
2021/11/15 07:15:54;;;;;;;58.90;54.07;;;;;;;11.01;100.00;102921.95;2004155;71;32899;-74
2021/11/15 07:21:38;;;;;;;59.70;54.47;;;;;;;11.02;100.00;102920.88;2007407;71;32803;-70
2021/11/15 07:27:21;;;;;;;61.63;56.40;;;;;;;11.03;100.00;102932.31;2016388;71;33362;-70
2021/11/15 07:33:06;;;;;;;63.83;58.60;;;;;;;11.11;100.00;102928.65;1998711;71;33221;-72
2021/11/15 07:38:50;;;;;;;64.07;58.67;;;;;;;11.12;100.00;102935.91;1940835;74;32948;-71
2021/11/15 07:44:38;;;;;;;63.60;58.50;;;;;;;11.11;100.00;102936.14;2011491;71;32744;-70
2021/11/15 07:50:24;;;;;;;60.53;55.23;;;;;;;11.18;100.00;102941.05;2007503;71;33344;-70
2021/11/15 07:56:13;;;;;;;62.70;57.20;;;;;;;11.12;100.00;102938.69;2001709;71;32801;-74
2021/11/15 08:01:56;;;;;;;60.87;55.37;;;;;;;11.17;100.00;102937.41;2003540;70;32800;-71
2021/11/15 08:07:40;;;;;;;63.80;58.40;;;;;;;11.16;100.00;102937.67;1991341;70;32846;-73
2021/11/15 08:13:26;;;;;;;60.63;55.63;;;;;;;11.17;100.00;102932.38;2016688;71;32858;-69
2021/11/15 08:19:13;;;;;;;59.87;55.00;;;;;;;11.40;100.00;102938.86;2016571;71;32891;-67
2021/11/15 08:25:49;;;;;;;60.27;55.27;;;;;;;11.22;100.00;102940.33;2009018;71;32810;-79
2021/11/15 08:31:33;;;;;;;58.73;54.00;;;;;;;11.27;100.00;102930.73;2018689;71;32794;-67
2021/11/15 08:37:17;;;;;;;58.67;53.97;;;;;;;11.46;100.00;102935.66;2009661;71;32748;-76
2021/11/15 08:43:01;;;;;;;59.53;54.67;;;;;;;11.39;100.00;102941.33;2016544;71;32899;-68
2021/11/15 08:48:48;;;;;;;58.83;54.20;;;;;;;11.32;100.00;102932.80;2007366;71;32814;-76
2021/11/15 08:54:34;;;;;;;59.40;54.67;;;;;;;11.35;100.00;102931.77;2005739;71;32865;-70
2021/11/15 09:00:19;;;;;;;62.40;57.50;;;;;;;11.49;100.00;102937.96;2009448;71;33284;-70
2021/11/15 09:06:03;;;;;;;61.83;57.00;;;;;;;11.70;100.00;102939.30;1998859;71;32738;-74
2021/11/15 09:11:48;;;;;;;63.97;59.10;;;;;;;11.88;100.00;102934.19;2002021;71;32924;-68
2021/11/15 09:17:35;;;;;;;63.97;59.13;;;;;;;11.55;100.00;102934.77;1998759;71;32739;-77
2021/11/15 09:23:20;;;;;;;66.57;61.57;;;;;;;11.81;100.00;102944.04;2012702;71;33376;-68
2021/11/15 09:29:06;;;;;;;66.07;61.03;;;;;;;11.73;100.00;102935.52;2003790;71;32812;-68
2021/11/15 09:34:50;;;;;;;63.60;58.60;;;;;;;11.85;100.00;102929.39;2009372;71;33282;-76
2021/11/15 09:40:35;;;;;;;59.93;55.03;;;;;;;11.81;100.00;102937.92;1999687;71;32778;-74
2021/11/15 09:46:21;;;;;;;62.87;57.87;;;;;;;11.76;100.00;102944.80;1997552;71;32748;-77
2021/11/15 09:52:08;;;;;;;62.63;57.53;;;;;;;11.81;100.00;102946.28;2000175;71;33273;-76
2021/11/15 09:57:52;;;;;;;61.90;56.90;;;;;;;11.73;100.00;102947.19;2004428;71;33362;-75
2021/11/15 10:03:38;;;;;;;59.83;55.23;;;;;;;11.82;100.00;102940.17;2010884;71;32796;-70
2021/11/15 10:09:28;;;;;;;59.10;54.40;;;;;;;11.64;100.00;102942.50;1994855;71;32864;-69
2021/11/15 10:15:13;;;;;;;60.30;55.50;;;;;;;11.63;100.00;102946.39;1991386;71;32795;-70
2021/11/15 10:21:00;;;;;;;58.17;53.67;;;;;;;11.75;100.00;102949.20;2018448;71;32905;-75
2021/11/15 10:26:51;;;;;;;56.73;52.17;;;;;;;11.78;100.00;102955.13;2016819;71;33316;-76
2021/11/15 10:32:42;;;;;;;55.70;51.33;;;;;;;12.10;100.00;102953.36;2018491;71;33265;-72
2021/11/15 10:38:40;;;;;;;54.43;50.07;;;;;;;12.02;100.00;102948.17;2009651;71;32750;-75
2021/11/15 10:44:29;;;;;;;56.97;52.30;;;;;;;12.01;100.00;102945.08;2000690;71;33193;-70
2021/11/15 10:50:20;;;;;;;53.23;48.93;;;;;;;12.05;100.00;102940.70;1996880;71;33305;-75
2021/11/15 10:56:19;;;;;;;57.93;53.33;;;;;;;12.16;100.00;102930.93;2022126;71;32865;-74
2021/11/15 11:02:05;;;;;;;57.47;52.77;;;;;;;11.94;100.00;102928.47;1995109;71;33247;-69
2021/11/15 11:07:51;;;;;;;58.23;53.57;;;;;;;12.01;100.00;102924.18;2007456;71;33417;-76
2021/11/15 11:13:51;;;;;;;58.30;53.70;;;;;;;11.96;100.00;102931.87;2006013;71;33225;-70
2021/11/15 11:19:57;;;;;;;58.17;53.60;;;;;;;12.00;100.00;102928.05;2018345;71;33368;-70
2021/11/15 11:25:34;;;;;;;57.23;52.73;;;;;;;11.90;100.00;102914.73;2018100;71;32820;-69
2021/11/15 11:31:44;;;;;;;58.43;53.77;;;;;;;12.07;100.00;102914.83;2013007;71;32807;-70
2021/11/15 11:37:30;;;;;;;56.77;52.37;;;;;;;12.05;100.00;102902.55;2009669;71;32963;-75
2021/11/15 11:43:15;;;;;;;57.00;52.67;;;;;;;12.05;100.00;102903.95;2003992;71;32810;-70
2021/11/15 11:49:02;;;;;;;60.20;55.37;;;;;;;12.17;100.00;102898.34;2016470;71;32880;-70
2021/11/15 11:54:48;;;;;;;54.33;50.13;;;;;;;12.21;100.00;102889.79;2011327;71;32796;-74
2021/11/15 12:00:35;;;;;;;57.83;53.63;;;;;;;12.43;100.00;102881.60;1994858;71;30852;-75
2021/11/15 12:06:31;;;;;;;61.17;56.80;;;;;;;12.33;100.00;102879.45;2011603;71;30816;-69
2021/11/15 12:12:15;;;;;;;57.70;53.27;;;;;;;12.25;100.00;102870.09;2016540;71;33411;-69
2021/11/15 12:18:10;;;;;;;62.53;57.90;;;;;;;12.60;100.00;102868.56;1991364;71;32807;-76
2021/11/15 12:24:28;;;;;;;58.40;53.93;;;;;;;12.48;100.00;102863.05;2009308;71;32797;-76
2021/11/15 12:30:17;;;;;;;57.10;52.90;;;;;;;12.65;100.00;102857.51;2005916;71;32746;-75
2021/11/15 12:36:09;;;;;;;55.53;51.60;;;;;;;12.83;100.00;102843.89;1995209;71;33352;-76
2021/11/15 12:42:01;;;;;;;51.30;47.53;;;;;;;12.90;100.00;102841.23;2005666;71;32827;-75
2021/11/15 12:47:49;;;;;;;55.53;51.63;;;;;;;12.67;100.00;102824.08;2007910;71;32901;-68
2021/11/15 12:53:33;;;;;;;50.30;46.57;;;;;;;12.62;100.00;102828.16;1998745;71;33301;-69
2021/11/15 12:59:17;;;;;;;51.83;48.17;;;;;;;12.64;100.00;102812.05;2014739;71;32821;-70
2021/11/15 13:05:02;;;;;;;54.47;50.67;;;;;;;12.81;100.00;102808.42;2014711;71;33326;-76
2021/11/15 13:10:48;;;;;;;53.07;49.53;;;;;;;12.89;100.00;102797.69;2014792;71;32840;-76
2021/11/15 13:16:32;;;;;;;46.93;44.10;;;;;;;12.80;100.00;102793.63;2016471;71;33330;-69
2021/11/15 13:22:19;;;;;;;47.67;44.47;;;;;;;12.86;100.00;102784.81;1995213;70;33281;-70
2021/11/15 13:28:03;;;;;;;47.07;44.17;;;;;;;12.93;100.00;102775.70;1997192;71;32771;-70
2021/11/15 13:33:49;;;;;;;44.43;41.63;;;;;;;12.97;100.00;102774.09;2013015;71;32927;-70
2021/11/15 13:39:34;;;;;;;42.90;40.30;;;;;;;13.01;100.00;102775.28;2014633;71;32839;-74
2021/11/15 13:45:18;;;;;;;44.93;42.03;;;;;;;12.79;100.00;102773.25;2002076;71;33357;-70
2021/11/15 13:51:04;;;;;;;46.80;43.80;;;;;;;12.89;100.00;102755.85;2017213;71;32911;-74
2021/11/15 13:56:48;;;;;;;47.17;43.97;;;;;;;12.90;100.00;102748.33;2000920;71;33233;-69
2021/11/15 14:02:32;;;;;;;49.67;46.60;;;;;;;12.90;100.00;102742.75;2013348;71;32916;-67
2021/11/15 14:08:18;;;;;;;45.90;43.30;;;;;;;12.75;100.00;102738.61;2006323;71;33355;-76
2021/11/15 14:14:02;;;;;;;49.53;46.57;;;;;;;12.88;100.00;102735.20;2011184;71;32932;-71
2021/11/15 14:19:46;;;;;;;47.57;44.67;;;;;;;12.81;100.00;102728.39;2011579;71;32895;-70
2021/11/15 14:25:30;;;;;;;47.13;44.33;;;;;;;12.74;100.00;102725.79;2004316;71;32770;-76
2021/11/15 14:31:14;;;;;;;47.20;44.50;;;;;;;12.83;100.00;102723.42;2012986;71;32871;-72
2021/11/15 14:36:57;;;;;;;46.53;43.93;;;;;;;12.70;100.00;102727.40;1995420;71;32767;-76
2021/11/15 14:42:41;;;;;;;44.63;42.23;;;;;;;12.79;100.00;102713.30;2016571;71;32915;-75
2021/11/15 14:48:27;;;;;;;46.80;44.10;;;;;;;12.82;100.00;102706.92;2002488;71;33267;-73
2021/11/15 14:54:12;;;;;;;49.37;46.60;;;;;;;12.80;100.00;102714.14;2009937;71;32844;-75
2021/11/15 14:59:56;;;;;;;48.77;46.17;;;;;;;12.70;100.00;102711.21;2006148;71;32813;-69
2021/11/15 15:05:40;;;;;;;51.60;48.70;;;;;;;12.64;100.00;102717.80;2016525;71;32822;-77
2021/11/15 15:11:24;;;;;;;47.33;44.83;;;;;;;12.55;100.00;102713.73;1995317;71;32896;-75
2021/11/15 15:17:10;;;;;;;52.17;48.97;;;;;;;12.61;100.00;102719.70;1991416;71;33302;-69
2021/11/15 15:22:56;;;;;;;49.10;46.00;;;;;;;12.52;100.00;102718.43;1991214;71;32778;-77
2021/11/15 15:28:42;;;;;;;52.13;48.83;;;;;;;12.30;100.00;102725.28;1991991;71;33390;-74
2021/11/15 15:34:26;;;;;;;54.00;50.67;;;;;;;12.14;100.00;102724.72;2006406;71;32825;-75
2021/11/15 15:40:14;;;;;;;52.83;49.53;;;;;;;12.21;100.00;102726.79;2010203;70;33316;-75
2021/11/15 15:45:56;;;;;;;54.20;50.90;;;;;;;12.00;100.00;102738.09;2015436;71;33321;-75
2021/11/15 15:51:40;;;;;;;53.27;49.80;;;;;;;12.09;100.00;102742.18;2003004;71;32835;-74
2021/11/15 15:57:24;;;;;;;56.20;52.50;;;;;;;11.86;100.00;102750.08;2004875;70;32761;-74
2021/11/15 16:03:08;;;;;;;55.13;51.50;;;;;;;11.66;100.00;102748.23;2016505;71;32841;-68
2021/11/15 16:08:59;;;;;;;56.43;52.80;;;;;;;11.61;100.00;102752.30;2002665;71;33327;-70
2021/11/15 16:15:08;;;;;;;55.70;51.70;;;;;;;11.29;100.00;102756.07;2009789;71;32796;-72
2021/11/15 16:20:41;;;;;;;56.83;52.90;;;;;;;11.05;100.00;102768.27;2014596;71;32813;-72
2021/11/15 16:26:25;;;;;;;57.07;53.07;;;;;;;10.85;100.00;102763.08;2002381;71;33357;-75
2021/11/15 16:32:09;;;;;;;61.03;56.70;;;;;;;10.77;100.00;102765.36;2001108;71;33251;-79
2021/11/15 16:37:53;;;;;;;58.90;54.70;;;;;;;10.47;100.00;102772.37;2004977;71;32757;-73
2021/11/15 16:43:38;;;;;;;58.30;54.07;;;;;;;10.36;100.00;102775.41;2006081;71;32874;-74
2021/11/15 16:49:22;;;;;;;60.70;56.50;;;;;;;10.02;100.00;102779.73;2002595;71;33395;-75
2021/11/15 16:55:09;;;;;;;58.80;54.70;;;;;;;9.81;100.00;102778.83;2016680;71;32789;-71
2021/11/15 17:00:54;;;;;;;60.23;55.87;;;;;;;9.81;100.00;102787.16;2014063;71;33349;-77
2021/11/15 17:06:39;;;;;;;57.97;53.77;;;;;;;9.65;100.00;102779.48;2011787;71;33193;-76
2021/11/15 17:12:23;;;;;;;59.30;54.57;;;;;;;9.63;100.00;102789.13;2002738;71;32852;-77
2021/11/15 17:18:08;;;;;;;60.60;56.13;;;;;;;9.16;100.00;102791.53;2015480;71;32895;-74
2021/11/15 17:23:54;;;;;;;57.13;52.67;;;;;;;9.15;100.00;102802.34;1967458;71;32938;-73
2021/11/15 17:29:41;;;;;;;55.67;51.37;;;;;;;9.17;100.00;102804.33;2003869;71;32808;-72
2021/11/15 17:35:26;;;;;;;56.17;51.80;;;;;;;9.12;100.00;102805.55;2007545;71;32814;-77
2021/11/15 17:41:11;;;;;;;57.70;53.27;;;;;;;9.10;100.00;102807.17;2014831;71;32810;-72
2021/11/15 17:46:58;;;;;;;53.60;49.50;;;;;;;9.31;100.00;102813.37;2011983;71;32737;-72
2021/11/15 17:52:47;;;;;;;57.03;52.73;;;;;;;9.47;100.00;102817.77;2016651;71;32867;-74
2021/11/15 17:58:43;;;;;;;58.17;53.67;;;;;;;9.62;100.00;102813.25;2010481;71;32819;-76
2021/11/15 18:04:17;;;;;;;57.40;52.73;;;;;;;9.60;100.00;102818.16;1906775;70;94991;-74
2021/11/15 18:10:05;;;;;;;56.83;52.33;;;;;;;9.59;100.00;102833.11;1998488;71;33306;-78
2021/11/15 18:15:49;;;;;;;57.57;52.97;;;;;;;9.50;100.00;102831.70;1999044;71;32769;-77
2021/11/15 18:21:34;;;;;;;58.77;54.13;;;;;;;9.55;100.00;102827.17;2016957;71;33376;-75
2021/11/15 18:27:22;;;;;;;61.10;55.83;;;;;;;9.53;100.00;102833.52;2004337;71;33228;-75
2021/11/15 18:33:06;;;;;;;65.23;59.63;;;;;;;9.55;100.00;102840.20;1994886;70;33380;-72
2021/11/15 18:38:51;;;;;;;62.70;57.63;;;;;;;9.40;100.00;102848.05;2000723;71;32744;-72
2021/11/15 18:44:37;;;;;;;63.90;58.80;;;;;;;9.32;100.00;102858.91;2003942;71;33296;-73
2021/11/15 18:50:26;;;;;;;62.17;57.17;;;;;;;9.33;100.00;102861.12;2006236;71;32975;-73
2021/11/15 18:56:10;;;;;;;60.77;55.57;;;;;;;9.65;100.00;102863.26;1998472;71;32971;-72
2021/11/15 19:01:56;;;;;;;59.63;54.47;;;;;;;10.01;100.00;102869.65;2015065;71;32922;-74
2021/11/15 19:07:45;;;;;;;59.43;54.43;;;;;;;9.95;100.00;102868.36;2011336;71;32803;-71
2021/11/15 19:13:28;;;;;;;57.47;52.70;;;;;;;10.01;100.00;102872.99;2009377;70;32796;-70
2021/11/15 19:19:13;;;;;;;59.13;54.43;;;;;;;9.97;100.00;102873.97;2018417;71;32866;-73
2021/11/15 19:24:58;;;;;;;57.77;53.17;;;;;;;10.05;100.00;102865.33;2013297;71;33372;-75
2021/11/15 19:30:45;;;;;;;60.97;56.17;;;;;;;10.09;100.00;102879.62;2016700;71;33369;-71
2021/11/15 19:36:31;;;;;;;57.27;52.57;;;;;;;9.91;100.00;102876.84;1991711;71;32740;-71
2021/11/15 19:42:16;;;;;;;60.73;55.90;;;;;;;9.94;100.00;102876.37;2009778;71;33383;-76
2021/11/15 19:48:01;;;;;;;57.10;52.70;;;;;;;9.90;100.00;102870.97;1991580;71;32827;-76
2021/11/15 19:53:46;;;;;;;59.03;54.70;;;;;;;9.78;100.00;102854.25;2015003;71;32893;-73
2021/11/15 19:59:30;;;;;;;58.20;53.80;;;;;;;9.89;100.00;102856.23;2005884;71;32808;-76
2021/11/15 20:05:14;;;;;;;59.00;54.57;;;;;;;9.75;100.00;102855.26;2011108;71;32809;-74
2021/11/15 20:11:00;;;;;;;60.30;55.80;;;;;;;9.95;100.00;102853.94;2016695;70;33326;-74
2021/11/15 20:16:44;;;;;;;60.30;55.37;;;;;;;9.89;100.00;102858.16;2000752;71;32762;-75
2021/11/15 20:22:28;;;;;;;57.37;53.03;;;;;;;9.82;100.00;102853.24;2004485;71;32747;-75
2021/11/15 20:28:16;;;;;;;58.70;53.77;;;;;;;9.76;100.00;102852.23;2018561;71;32913;-70
2021/11/15 20:34:02;;;;;;;62.07;57.17;;;;;;;9.78;100.00;102838.13;2000880;71;32724;-75
2021/11/15 20:39:46;;;;;;;62.70;57.80;;;;;;;9.46;100.00;102836.02;2009353;71;32802;-78
2021/11/15 20:45:31;;;;;;;62.93;58.13;;;;;;;9.09;100.00;102833.73;2011546;71;33340;-73
2021/11/15 20:51:15;;;;;;;64.27;59.37;;;;;;;8.93;100.00;102831.00;2011462;71;33350;-79
2021/11/15 20:56:59;;;;;;;62.73;57.63;;;;;;;8.91;100.00;102832.28;2013128;71;32804;-79
2021/11/15 21:02:43;;;;;;;65.47;60.17;;;;;;;8.78;100.00;102836.55;2017001;71;32805;-79
2021/11/15 21:08:28;;;;;;;66.30;61.17;;;;;;;8.41;100.00;102841.07;2005739;70;32808;-76
2021/11/15 21:14:13;;;;;;;68.80;63.40;;;;;;;8.28;100.00;102850.80;2004019;71;32896;-79
2021/11/15 21:19:56;;;;;;;68.67;63.03;;;;;;;8.15;100.00;102843.41;2014991;71;32825;-80
2021/11/15 21:25:40;;;;;;;67.27;61.80;;;;;;;8.21;100.00;102834.24;2000548;71;32836;-76
2021/11/15 21:31:27;;;;;;;65.17;59.57;;;;;;;8.29;100.00;102822.05;2013138;71;32926;-73
2021/11/15 21:37:11;;;;;;;64.00;58.90;;;;;;;7.98;100.00;102823.70;2011829;71;33331;-77
2021/11/15 21:42:57;;;;;;;62.83;57.63;;;;;;;7.74;100.00;102816.97;1995043;71;32812;-75
2021/11/15 21:48:41;;;;;;;63.37;58.03;;;;;;;7.62;100.00;102802.66;2011318;71;33363;-81
2021/11/15 21:54:24;;;;;;;65.37;59.67;;;;;;;7.48;100.00;102800.49;2002864;71;32842;-76
2021/11/15 22:00:14;;;;;;;63.53;58.23;;;;;;;7.49;100.00;102798.02;2000922;71;32749;-70
2021/11/15 22:05:58;;;;;;;67.23;61.53;;;;;;;7.40;100.00;102801.27;1991753;71;32766;-76
2021/11/15 22:11:44;;;;;;;66.47;60.87;;;;;;;7.29;100.00;102791.17;2006394;71;32796;-76
2021/11/15 22:17:28;;;;;;;64.10;58.77;;;;;;;7.27;100.00;102794.67;2000952;71;32845;-71
2021/11/15 22:23:18;;;;;;;65.03;59.57;;;;;;;7.21;100.00;102801.08;1990812;71;32748;-72
2021/11/15 22:29:03;;;;;;;66.43;61.03;;;;;;;7.01;100.00;102807.70;2011678;71;33401;-71
2021/11/15 22:34:47;;;;;;;67.27;61.73;;;;;;;6.96;100.00;102809.72;2003818;71;32820;-74
2021/11/15 22:40:31;;;;;;;62.33;57.27;;;;;;;7.12;100.00;102808.42;2008261;71;32814;-80
2021/11/15 22:46:15;;;;;;;63.90;58.63;;;;;;;7.19;100.00;102814.25;2018590;71;32800;-73
2021/11/15 22:52:01;;;;;;;62.27;57.07;;;;;;;7.25;100.00;102815.31;2014763;71;32807;-70
2021/11/15 22:57:44;;;;;;;59.83;54.80;;;;;;;7.37;100.00;102825.17;2014881;71;32808;-77
2021/11/15 23:03:30;;;;;;;59.57;54.67;;;;;;;7.61;100.00;102817.05;2016685;71;33319;-74
2021/11/15 23:09:15;;;;;;;61.37;56.37;;;;;;;7.71;100.00;102811.88;2007622;71;33323;-74
2021/11/15 23:14:58;;;;;;;61.90;57.00;;;;;;;7.92;100.00;102814.03;2011270;71;32917;-75
2021/11/15 23:20:43;;;;;;;62.73;57.57;;;;;;;8.01;100.00;102809.41;2016920;71;33375;-74
2021/11/15 23:26:27;;;;;;;61.13;56.30;;;;;;;8.13;100.00;102801.25;2004263;71;33292;-74
2021/11/15 23:32:12;;;;;;;63.03;58.13;;;;;;;8.15;100.00;102810.20;2016825;70;33315;-74
2021/11/15 23:37:55;;;;;;;60.97;56.03;;;;;;;7.98;100.00;102802.95;2011101;71;33304;-74
2021/11/15 23:43:39;;;;;;;63.50;58.20;;;;;;;8.11;100.00;102807.56;2004488;71;32728;-75
2021/11/15 23:49:24;;;;;;;61.87;57.07;;;;;;;7.88;100.00;102797.55;2006287;71;32753;-75
2021/11/15 23:55:11;;;;;;;62.80;58.00;;;;;;;8.03;100.00;102797.60;1997069;71;33356;-75
